createdAt,value
2023-01-05T00:00:12.575Z,78.73
2023-01-05T00:02:39.991Z,79.07
2023-01-05T00:05:10.638Z,80.09
2023-01-05T00:07:37.748Z,80.40
2023-01-05T00:10:05.281Z,80.09
2023-01-05T00:12:52.521Z,79.40
2023-01-05T00:15:38.897Z,79.80
2023-01-05T00:18:46.045Z,80.30
2023-01-05T00:21:36.428Z,79.45
2023-01-05T00:24:05.483Z,79.90
2023-01-05T00:26:32.407Z,80.54
2023-01-05T00:28:59.377Z,80.83
2023-01-05T00:31:26.325Z,80.25
2023-01-05T00:33:55.654Z,79.25
2023-01-05T00:36:24.298Z,79.31
2023-01-05T00:38:52.375Z,79.66
2023-01-05T00:41:30.446Z,79.80
2023-01-05T00:44:02.753Z,80.45
2023-01-05T00:46:37.009Z,79.22
2023-01-05T00:49:05.208Z,80.61
2023-01-05T00:51:32.099Z,80.07
2023-01-05T00:54:01.875Z,78.93
2023-01-05T00:56:29.420Z,77.98
2023-01-05T00:58:59.564Z,78.13
2023-01-05T01:01:26.580Z,79.07
2023-01-05T01:03:57.547Z,79.01
2023-01-05T01:06:31.473Z,79.53
2023-01-05T01:09:01.892Z,80.74
2023-01-05T01:11:31.986Z,80.50
2023-01-05T01:13:58.942Z,80.68
2023-01-05T01:16:26.133Z,80.39
2023-01-05T01:18:58.265Z,79.78
2023-01-05T01:21:28.188Z,79.72
2023-01-05T01:23:58.172Z,79.88
2023-01-05T01:26:25.070Z,80.07
2023-01-05T01:28:53.609Z,79.46
2023-01-05T01:31:20.635Z,78.92
2023-01-05T01:33:47.689Z,79.78
2023-01-05T01:36:14.770Z,79.61
2023-01-05T01:38:57.413Z,79.34
2023-01-05T01:41:27.119Z,79.01
2023-01-05T01:44:02.359Z,79.57
2023-01-05T01:46:32.314Z,79.24
2023-01-05T01:49:17.788Z,78.44
2023-01-05T01:51:50.957Z,79.25
2023-01-05T01:54:18.783Z,78.56
2023-01-05T01:56:55.009Z,78.72
2023-01-05T01:59:28.669Z,78.35
2023-01-05T02:02:04.347Z,78.57
2023-01-05T02:04:36.934Z,79.58
2023-01-05T02:07:07.074Z,79.69
2023-01-05T02:09:38.194Z,79.59
2023-01-05T02:12:20.556Z,79.12
2023-01-05T02:15:16.316Z,79.46
2023-01-05T02:17:51.583Z,79.76
2023-01-05T02:20:36.965Z,80.13
2023-01-05T02:23:37.165Z,79.27
2023-01-05T02:26:41.360Z,80.05
2023-01-05T02:29:54.797Z,79.70
2023-01-05T02:32:33.834Z,79.19
2023-01-05T02:35:13.728Z,79.01
2023-01-05T02:38:02.970Z,78.65
2023-01-05T02:40:51.089Z,78.86
2023-01-05T02:43:22.056Z,78.01
2023-01-05T02:45:50.686Z,78.93
2023-01-05T02:48:20.669Z,78.69
2023-01-05T02:51:06.502Z,79.59
2023-01-05T02:53:43.543Z,80.27
2023-01-05T02:56:23.060Z,79.47
2023-01-05T02:59:07.258Z,79.07
2023-01-05T03:01:44.413Z,79.53
2023-01-05T03:04:23.709Z,79.33
2023-01-05T03:07:07.474Z,80.46
2023-01-05T03:09:46.848Z,80.27
2023-01-05T03:12:55.678Z,81.39
2023-01-05T03:15:36.593Z,81.41
2023-01-05T03:18:13.919Z,81.86
2023-01-05T03:20:46.170Z,82.00
2023-01-05T03:23:36.493Z,82.33
2023-01-05T03:26:26.148Z,81.55
2023-01-05T03:29:20.921Z,81.32
2023-01-05T03:32:45.633Z,80.89
2023-01-05T03:35:34.904Z,81.55
2023-01-05T03:38:27.001Z,81.79
2023-01-05T03:40:58.428Z,81.20
2023-01-05T03:43:25.986Z,80.55
2023-01-05T03:46:07.171Z,81.41
2023-01-05T03:48:41.042Z,82.18
2023-01-05T03:51:08.699Z,81.58
2023-01-05T03:53:52.059Z,80.51
2023-01-05T03:56:18.981Z,79.46
2023-01-05T03:58:45.907Z,79.12
2023-01-05T04:01:13.205Z,80.42
2023-01-05T04:03:41.088Z,80.87
2023-01-05T04:06:13.116Z,80.75
2023-01-05T04:08:40.164Z,81.44
2023-01-05T04:11:23.389Z,80.69
2023-01-05T04:13:51.463Z,79.49
2023-01-05T04:16:21.446Z,79.31
2023-01-05T04:18:53.457Z,80.42
2023-01-05T04:21:27.620Z,81.13
2023-01-05T04:23:58.069Z,80.17
2023-01-05T04:26:34.108Z,80.45
2023-01-05T04:29:06.433Z,80.35
2023-01-05T04:31:33.452Z,78.62
2023-01-05T04:34:03.399Z,78.19
2023-01-05T04:36:30.557Z,78.59
2023-01-05T04:38:57.544Z,78.83
2023-01-05T04:41:24.629Z,79.28
2023-01-05T04:43:51.688Z,79.79
2023-01-05T04:46:24.998Z,79.48
2023-01-05T04:48:51.956Z,79.34
2023-01-05T04:51:19.052Z,78.29
2023-01-05T04:53:48.466Z,78.22
2023-01-05T04:56:15.930Z,77.63
2023-01-05T04:58:51.432Z,78.33
2023-01-05T05:01:23.697Z,79.76
2023-01-05T05:04:00.401Z,79.76
2023-01-05T05:06:28.462Z,79.41
2023-01-05T05:09:10.396Z,79.64
2023-01-05T05:11:40.319Z,79.76
2023-01-05T05:14:09.611Z,79.10
2023-01-05T05:16:38.995Z,79.39
2023-01-05T05:19:05.908Z,79.42
2023-01-05T05:21:35.848Z,79.42
2023-01-05T05:24:04.887Z,79.16
2023-01-05T05:26:31.777Z,78.91
2023-01-05T05:29:00.983Z,79.67
2023-01-05T05:31:31.264Z,78.68
2023-01-05T05:33:58.483Z,78.06
2023-01-05T05:36:25.637Z,78.87
2023-01-05T05:38:54.808Z,80.21
2023-01-05T05:41:25.372Z,80.79
2023-01-05T05:43:52.289Z,81.01
2023-01-05T05:46:19.707Z,79.14
2023-01-05T05:48:49.352Z,79.00
2023-01-05T05:51:16.287Z,80.75
2023-01-05T05:53:44.998Z,80.80
2023-01-05T05:56:14.980Z,80.86
2023-01-05T05:58:48.023Z,80.81
2023-01-05T06:01:14.905Z,81.01
2023-01-05T06:03:47.105Z,80.60
2023-01-05T06:06:15.303Z,80.60
2023-01-05T06:08:42.174Z,80.74
2023-01-05T06:11:09.152Z,81.62
2023-01-05T06:13:39.068Z,81.19
2023-01-05T06:16:06.186Z,79.69
2023-01-05T06:18:33.122Z,81.71
2023-01-05T06:21:02.188Z,80.43
2023-01-05T06:23:32.246Z,78.59
2023-01-05T06:25:59.256Z,79.21
2023-01-05T06:28:29.540Z,79.97
2023-01-05T06:31:06.386Z,79.86
2023-01-05T06:33:41.450Z,80.36
2023-01-05T06:36:08.656Z,80.55
2023-01-05T06:38:45.082Z,80.50
2023-01-05T06:41:12.260Z,79.68
2023-01-05T06:43:41.833Z,80.84
2023-01-05T06:46:13.561Z,81.25
2023-01-05T06:48:45.096Z,81.25
2023-01-05T06:51:11.934Z,81.43
2023-01-05T06:53:38.796Z,80.95
2023-01-05T06:56:10.274Z,79.74
2023-01-05T06:58:37.152Z,80.89
2023-01-05T07:01:04.136Z,80.60
2023-01-05T07:03:31.375Z,80.92
2023-01-05T07:05:58.170Z,82.02
2023-01-05T07:08:25.165Z,81.70
2023-01-05T07:10:52.194Z,82.33
2023-01-05T07:13:19.058Z,82.27
2023-01-05T07:15:50.188Z,81.97
2023-01-05T07:18:17.050Z,83.32
2023-01-05T07:20:45.402Z,81.47
2023-01-05T07:23:15.337Z,79.33
2023-01-05T07:25:45.344Z,80.66
2023-01-05T07:28:15.385Z,79.14
2023-01-05T07:30:45.468Z,78.55
2023-01-05T07:33:13.775Z,78.34
2023-01-05T07:35:40.594Z,78.17
2023-01-05T07:38:07.953Z,78.41
2023-01-05T07:40:34.845Z,77.86
2023-01-05T07:43:05.938Z,78.38
2023-01-05T07:45:35.106Z,76.60
2023-01-05T07:48:21.828Z,78.13
2023-01-05T07:51:08.729Z,81.46
2023-01-05T07:53:44.611Z,80.24
2023-01-05T07:56:14.079Z,76.89
2023-01-05T07:58:42.676Z,76.56
2023-01-05T08:01:12.351Z,74.41
2023-01-05T08:03:39.461Z,74.92
2023-01-05T08:06:17.884Z,76.51
2023-01-05T08:08:56.934Z,73.47
2023-01-05T08:11:32.115Z,75.51
2023-01-05T08:14:14.319Z,77.12
2023-01-05T08:16:49.701Z,77.68
2023-01-05T08:19:19.893Z,80.46
2023-01-05T08:21:46.760Z,77.94
2023-01-05T08:24:13.798Z,78.55
2023-01-05T08:26:43.192Z,80.44
2023-01-05T08:29:12.084Z,78.64
2023-01-05T08:31:40.603Z,76.83
2023-01-05T08:34:12.962Z,77.72
2023-01-05T08:36:43.909Z,80.80
2023-01-05T08:39:11.934Z,78.09
2023-01-05T08:41:48.504Z,78.90
2023-01-05T08:44:21.021Z,78.21
2023-01-05T08:46:51.107Z,78.97
2023-01-05T08:49:17.953Z,77.87
2023-01-05T08:51:47.857Z,75.47
2023-01-05T08:54:14.620Z,76.19
2023-01-05T08:56:43.462Z,74.37
2023-01-05T09:02:13.588Z,75.12
2023-01-05T09:04:51.565Z,74.49
2023-01-05T09:07:19.505Z,73.78
2023-01-05T09:09:49.735Z,73.61
2023-01-05T09:12:16.723Z,76.51
2023-01-05T09:14:49.198Z,74.12
2023-01-05T09:17:15.926Z,74.27
2023-01-05T09:19:42.987Z,77.31
2023-01-05T09:22:09.931Z,77.35
2023-01-05T09:24:36.911Z,75.67
2023-01-05T09:27:07.262Z,74.40
2023-01-05T09:29:40.948Z,76.18
2023-01-05T09:32:11.765Z,76.78
2023-01-05T09:34:43.077Z,79.10
2023-01-05T09:37:19.522Z,77.42
2023-01-05T09:39:50.189Z,76.73
2023-01-05T09:42:24.393Z,74.61
2023-01-05T09:45:04.371Z,74.68
2023-01-05T09:47:43.036Z,74.10
2023-01-05T09:53:08.775Z,71.16
2023-01-05T09:58:30.052Z,74.49
2023-01-05T10:01:09.372Z,75.13
2023-01-05T10:04:06.350Z,71.37
2023-01-05T10:06:50.128Z,72.91
2023-01-05T10:09:34.638Z,73.39
2023-01-05T10:12:45.440Z,72.00
2023-01-05T10:15:25.049Z,69.83
2023-01-05T10:17:53.884Z,72.58
2023-01-05T10:20:27.076Z,69.96
2023-01-05T10:23:34.236Z,71.90
2023-01-05T10:26:28.298Z,71.19
2023-01-05T10:29:05.851Z,70.76
2023-01-05T10:31:50.208Z,69.86
2023-01-05T10:34:21.813Z,68.99
2023-01-05T10:37:14.508Z,69.13
2023-01-05T10:39:56.001Z,70.70
2023-01-05T10:42:23.493Z,70.08
2023-01-05T10:44:59.363Z,71.04
2023-01-05T10:47:30.249Z,71.89
2023-01-05T10:49:59.748Z,69.66
2023-01-05T10:52:33.980Z,69.11
2023-01-05T10:55:18.945Z,69.68
2023-01-05T10:58:00.867Z,71.36
2023-01-05T11:00:47.719Z,72.47
2023-01-05T11:03:18.342Z,72.51
2023-01-05T11:05:52.937Z,71.71
2023-01-05T11:08:32.125Z,70.50
2023-01-05T11:11:08.282Z,71.36
2023-01-05T11:13:46.408Z,71.94
2023-01-05T11:16:18.469Z,71.46
2023-01-05T11:18:57.693Z,70.44
2023-01-05T11:21:24.531Z,69.69
2023-01-05T11:23:57.552Z,69.50
2023-01-05T11:26:47.815Z,69.95
2023-01-05T11:29:17.630Z,70.17
2023-01-05T11:32:07.023Z,70.11
2023-01-05T11:34:48.004Z,70.40
2023-01-05T11:37:25.365Z,70.54
2023-01-05T11:39:56.444Z,70.10
2023-01-05T11:42:25.800Z,70.38
2023-01-05T11:45:17.696Z,69.67
2023-01-05T11:47:47.679Z,70.50
2023-01-05T11:50:14.568Z,70.64
2023-01-05T11:52:46.925Z,70.44
2023-01-05T11:55:23.573Z,68.71
2023-01-05T11:58:00.103Z,70.34
2023-01-05T12:01:08.799Z,71.27
2023-01-05T12:04:03.951Z,70.72
2023-01-05T12:06:49.715Z,70.36
2023-01-05T12:09:39.348Z,70.91
2023-01-05T12:12:15.945Z,70.87
2023-01-05T12:15:14.982Z,69.87
2023-01-05T12:17:50.802Z,70.86
2023-01-05T12:20:45.532Z,70.59
2023-01-05T12:23:19.348Z,71.17
2023-01-05T12:26:14.524Z,71.00
2023-01-05T12:30:24.669Z,71.52
2023-01-05T12:35:12.502Z,71.82
2023-01-05T12:38:01.767Z,71.24
2023-01-05T12:41:06.811Z,70.95
2023-01-05T12:43:54.253Z,70.55
2023-01-05T12:47:01.167Z,70.75
2023-01-05T12:49:41.394Z,70.29
2023-01-05T12:52:25.850Z,69.29
2023-01-05T12:55:01.789Z,69.80
2023-01-05T12:57:55.815Z,69.71
2023-01-05T13:00:26.555Z,69.44
2023-01-05T13:03:03.130Z,70.02
2023-01-05T13:05:57.883Z,70.20
2023-01-05T13:08:40.527Z,70.55
2023-01-05T13:11:15.027Z,70.00
2023-01-05T13:13:48.655Z,69.99
2023-01-05T13:16:23.448Z,70.16
2023-01-05T13:19:04.846Z,70.04
2023-01-05T13:21:35.379Z,70.10
2023-01-05T13:24:35.874Z,70.99
2023-01-05T13:27:03.473Z,71.19
2023-01-05T13:29:42.037Z,71.16
2023-01-05T13:32:44.669Z,70.86
2023-01-05T13:35:33.384Z,70.29
2023-01-05T13:38:14.522Z,70.59
2023-01-05T13:41:03.810Z,70.47
2023-01-05T13:43:46.063Z,70.91
2023-01-05T13:46:32.114Z,71.29
2023-01-05T13:49:34.718Z,71.97
2023-01-05T13:52:12.609Z,72.14
2023-01-05T13:55:00.378Z,71.62
2023-01-05T13:57:39.385Z,71.92
2023-01-05T14:00:31.577Z,71.90
2023-01-05T14:03:27.595Z,72.14
2023-01-05T14:06:05.818Z,72.09
2023-01-05T14:08:42.890Z,72.62
2023-01-05T14:11:33.073Z,71.75
2023-01-05T14:14:26.113Z,71.39
2023-01-05T14:16:53.851Z,72.40
2023-01-05T14:19:50.782Z,72.26
2023-01-05T14:22:24.292Z,71.77
2023-01-05T14:24:52.424Z,72.14
2023-01-05T14:27:31.328Z,71.65
2023-01-05T14:30:08.601Z,71.98
2023-01-05T14:32:44.163Z,70.60
2023-01-05T14:35:38.496Z,69.77
2023-01-05T14:38:20.954Z,69.46
2023-01-05T14:40:54.324Z,69.71
2023-01-05T14:43:38.827Z,69.62
2023-01-05T14:46:26.883Z,70.29
2023-01-05T14:49:12.395Z,70.90
2023-01-05T14:52:01.525Z,71.63
2023-01-05T14:55:06.190Z,73.00
2023-01-05T14:57:59.901Z,73.09
2023-01-05T15:00:45.148Z,72.39
2023-01-05T15:03:47.262Z,71.65
2023-01-05T15:06:31.029Z,70.41
2023-01-05T15:09:31.567Z,71.45
2023-01-05T15:12:19.654Z,72.54
2023-01-05T15:14:58.344Z,73.35
2023-01-05T15:18:08.144Z,72.27
2023-01-05T15:20:49.942Z,71.89
2023-01-05T15:23:51.124Z,72.23
2023-01-05T15:26:37.963Z,72.46
2023-01-05T15:29:35.650Z,71.29
2023-01-05T15:32:33.247Z,71.55
2023-01-05T15:35:16.895Z,71.12
2023-01-05T15:37:47.457Z,71.42
2023-01-05T15:40:23.585Z,71.86
2023-01-05T15:43:01.718Z,71.44
2023-01-05T15:45:37.190Z,72.68
2023-01-05T15:48:33.209Z,72.20
2023-01-05T15:51:02.213Z,71.86
2023-01-05T15:53:39.384Z,72.71
2023-01-05T15:56:08.292Z,73.66
2023-01-05T15:58:44.730Z,72.49
2023-01-05T16:01:15.977Z,72.76
2023-01-05T16:03:50.102Z,72.90
2023-01-05T16:06:26.204Z,73.66
2023-01-05T16:09:00.964Z,73.36
2023-01-05T16:11:34.108Z,73.44
2023-01-05T16:14:28.967Z,73.32
2023-01-05T16:17:15.690Z,74.13
2023-01-05T16:19:56.280Z,73.73
2023-01-05T16:22:42.033Z,74.06
2023-01-05T16:25:29.390Z,74.46
2023-01-05T16:28:08.253Z,74.99
2023-01-05T16:30:42.542Z,75.33
2023-01-05T16:33:12.043Z,75.92
2023-01-05T16:35:41.869Z,76.89
2023-01-05T16:38:09.218Z,76.77
2023-01-05T16:40:43.392Z,76.92
2023-01-05T16:43:55.004Z,76.12
2023-01-05T16:46:31.200Z,73.93
2023-01-05T16:49:19.921Z,75.34
2023-01-05T16:51:53.689Z,77.83
2023-01-05T16:54:42.244Z,76.47
2023-01-05T16:57:44.192Z,75.26
2023-01-05T17:03:10.231Z,76.64
2023-01-05T17:05:37.379Z,75.46
2023-01-05T17:08:27.596Z,76.13
2023-01-05T17:10:58.992Z,78.30
2023-01-05T17:13:38.259Z,78.02
2023-01-05T17:16:08.660Z,75.60
2023-01-05T17:18:37.198Z,75.57
2023-01-05T17:21:06.687Z,77.30
2023-01-05T17:23:53.191Z,76.98
2023-01-05T17:26:34.970Z,77.86
2023-01-05T17:29:08.440Z,78.97
2023-01-05T17:31:38.411Z,79.95
2023-01-05T17:34:05.357Z,79.40
2023-01-05T17:36:38.475Z,77.50
2023-01-05T17:39:11.345Z,75.42
2023-01-05T17:42:21.281Z,74.96
2023-01-05T17:44:58.212Z,76.20
2023-01-05T17:47:27.428Z,77.15
2023-01-05T17:49:54.564Z,75.24
2023-01-05T17:52:23.126Z,75.96
2023-01-05T17:54:50.040Z,75.74
2023-01-05T17:57:21.521Z,74.89
2023-01-05T17:59:49.546Z,72.80
2023-01-05T18:02:18.687Z,74.67
2023-01-05T18:04:49.131Z,76.04
2023-01-05T18:07:19.775Z,77.11
2023-01-05T18:09:49.309Z,75.56
2023-01-05T18:12:16.531Z,77.06
2023-01-05T18:14:45.733Z,77.33
2023-01-05T18:17:12.687Z,76.14
2023-01-05T18:19:48.486Z,74.24
2023-01-05T18:22:27.678Z,73.78
2023-01-05T18:24:54.711Z,72.89
2023-01-05T18:27:29.625Z,72.58
2023-01-05T18:29:57.500Z,71.89
2023-01-05T18:32:24.773Z,72.95
2023-01-05T18:34:52.839Z,73.60
2023-01-05T18:37:22.023Z,72.04
2023-01-05T18:39:51.880Z,71.96
2023-01-05T18:42:25.863Z,73.77
2023-01-05T18:44:52.931Z,76.59
2023-01-05T18:47:29.834Z,76.66
2023-01-05T18:50:02.548Z,73.47
2023-01-05T18:52:29.796Z,75.10
2023-01-05T18:54:56.631Z,76.13
2023-01-05T18:57:23.491Z,74.67
2023-01-05T18:59:51.820Z,73.63
2023-01-05T19:02:21.533Z,73.79
2023-01-05T19:04:51.609Z,71.28
2023-01-05T19:07:21.617Z,70.73
2023-01-05T19:09:51.457Z,74.64
2023-01-05T19:12:19.169Z,74.91
2023-01-05T19:14:51.873Z,71.85
2023-01-05T19:17:26.450Z,73.20
2023-01-05T19:19:56.432Z,72.88
2023-01-05T19:22:26.432Z,77.72
2023-01-05T19:24:53.689Z,75.00
2023-01-05T19:27:26.373Z,74.24
2023-01-05T19:30:00.069Z,76.29
2023-01-05T19:32:39.721Z,75.98
2023-01-05T19:35:10.406Z,77.33
2023-01-05T19:40:20.082Z,77.25
2023-01-05T19:42:49.349Z,76.27
2023-01-05T19:45:31.049Z,76.93
2023-01-05T19:47:57.937Z,75.99
2023-01-05T19:50:28.531Z,75.95
2023-01-05T19:53:01.082Z,74.94
2023-01-05T19:55:29.766Z,74.51
2023-01-05T19:58:04.881Z,74.64
2023-01-05T20:00:37.521Z,73.05
2023-01-05T20:03:14.792Z,73.13
2023-01-05T20:05:45.261Z,70.12
2023-01-05T20:08:12.282Z,72.56
2023-01-05T20:10:45.131Z,74.83
2023-01-05T20:13:16.380Z,75.57
2023-01-05T20:15:43.913Z,74.13
2023-01-05T20:18:16.657Z,71.78
2023-01-05T20:20:43.587Z,73.15
2023-01-05T20:23:11.462Z,70.97
2023-01-05T20:25:45.433Z,75.29
2023-01-05T20:28:15.660Z,75.77
2023-01-05T20:30:43.684Z,72.73
2023-01-05T20:33:13.496Z,75.52
2023-01-05T20:35:54.914Z,73.30
2023-01-05T20:38:22.276Z,73.52
2023-01-05T20:40:53.253Z,72.27
2023-01-05T20:43:30.666Z,73.04
2023-01-05T20:46:01.226Z,72.35
2023-01-05T20:48:35.670Z,71.75
2023-01-05T20:51:07.093Z,73.11
2023-01-05T20:53:34.861Z,71.60
2023-01-05T20:56:12.950Z,70.92
2023-01-05T20:58:41.248Z,69.61
2023-01-05T21:01:11.552Z,73.59
2023-01-05T21:03:44.748Z,74.52
2023-01-05T21:06:22.815Z,70.80
2023-01-05T21:08:56.089Z,73.42
2023-01-05T21:11:30.464Z,75.41
2023-01-05T21:14:07.056Z,72.72
2023-01-05T21:16:43.296Z,72.67
2023-01-05T21:19:21.984Z,76.57
2023-01-05T21:21:54.600Z,77.25
2023-01-05T21:24:25.413Z,75.38
2023-01-05T21:26:58.717Z,76.75
2023-01-05T21:29:32.581Z,78.66
2023-01-05T21:31:59.709Z,78.75
2023-01-05T21:34:26.734Z,80.27
2023-01-05T21:36:58.480Z,77.87
2023-01-05T21:39:26.281Z,78.30
2023-01-05T21:42:12.289Z,81.34
2023-01-05T21:44:55.139Z,79.78
2023-01-05T21:47:27.653Z,78.03
2023-01-05T21:49:56.944Z,78.70
2023-01-05T21:52:47.471Z,77.45
2023-01-05T21:55:33.385Z,77.06
2023-01-05T21:58:03.118Z,75.08
2023-01-05T22:00:38.821Z,75.87
2023-01-05T22:03:08.734Z,74.72
2023-01-05T22:05:36.049Z,74.92
2023-01-05T22:08:06.691Z,76.49
2023-01-05T22:10:34.104Z,78.64
2023-01-05T22:13:01.991Z,81.89
2023-01-05T22:15:28.875Z,79.95
2023-01-05T22:17:55.973Z,80.63
2023-01-05T22:20:28.278Z,78.02
2023-01-05T22:22:56.479Z,76.70
2023-01-05T22:25:26.130Z,74.17
2023-01-05T22:27:55.427Z,76.44
2023-01-05T22:30:23.588Z,76.95
2023-01-05T22:32:54.605Z,76.08
2023-01-05T22:35:21.501Z,76.60
2023-01-05T22:37:53.276Z,75.51
2023-01-05T22:40:21.276Z,73.44
2023-01-05T22:42:48.188Z,74.79
2023-01-05T22:45:27.983Z,75.46
2023-01-05T22:48:11.082Z,73.41
2023-01-05T22:50:41.394Z,73.64
2023-01-05T22:53:11.263Z,76.38
2023-01-05T22:55:38.276Z,75.94
2023-01-05T22:58:08.715Z,77.21
2023-01-05T23:00:35.879Z,77.89
2023-01-05T23:03:09.931Z,80.24
2023-01-05T23:05:50.299Z,78.41
2023-01-05T23:08:20.169Z,79.71
2023-01-05T23:10:47.051Z,80.30
2023-01-05T23:13:14.394Z,78.37
2023-01-05T23:15:50.161Z,76.97
2023-01-05T23:18:17.126Z,78.65
2023-01-05T23:20:45.430Z,80.39
2023-01-05T23:23:25.870Z,83.00
2023-01-05T23:26:09.587Z,80.22
2023-01-05T23:28:38.622Z,77.50
2023-01-05T23:31:09.193Z,78.61
2023-01-05T23:33:42.966Z,79.50
2023-01-05T23:36:14.154Z,80.71
2023-01-05T23:38:43.458Z,81.46
2023-01-05T23:41:13.745Z,81.60
2023-01-05T23:43:42.101Z,81.85
2023-01-05T23:46:20.507Z,82.48
2023-01-05T23:48:48.811Z,84.88
2023-01-05T23:51:20.603Z,83.89
2023-01-05T23:53:50.794Z,82.69
2023-01-05T23:56:21.819Z,81.97
2023-01-05T23:59:04.155Z,80.82
